DLH465 EDDP-EDDF
Flight info
| Callsign | DLH465 |
|---|---|
| Flight time | 0h 34m |
| Altitude | 22000 |
| Route | ORTAG5N ORTAG T177 ODIPI/N0438F210 T157 KERAX KERAX5A |
| Aircraft | B789/H-SDE1E2E3FGHIJ2J3J4J5M1RWXY/LB1D1 |
Departure
| Time | 2026-05-03 20:56 |
|---|---|
| Airport | Leipzig/Halle Airport (EDDP) |
Arrival
| Time | 2026-05-03 21:30 |
|---|---|
| Airport | Frankfurt Main Airport (EDDF) |
| Time | Latitude | Longitude | Altitude | Speed | Heading |
|---|---|---|---|---|---|
| 2026-05-03 20:16 | 51.42018 | 12.21218 | 436 ft | 0 kts | 14° |
| 2026-05-03 20:42 | 51.42011 | 12.21215 | 436 ft | 4 kts | 14° |
| 2026-05-03 20:42 | 51.41985 | 12.21203 | 431 ft | 4 kts | 16° |
| 2026-05-03 20:43 | 51.41966 | 12.21194 | 425 ft | 4 kts | 28° |
| 2026-05-03 20:43 | 51.41955 | 12.21179 | 421 ft | 4 kts | 82° |
| 2026-05-03 20:43 | 51.41958 | 12.21146 | 421 ft | 4 kts | 105° |
| 2026-05-03 20:43 | 51.41963 | 12.21117 | 420 ft | 0 kts | 105° |
| 2026-05-03 20:48 | 51.41962 | 12.21117 | 420 ft | 0 kts | 105° |
| 2026-05-03 20:48 | 51.41961 | 12.21123 | 420 ft | 1 kts | 105° |
| 2026-05-03 20:49 | 51.41957 | 12.21149 | 421 ft | 3 kts | 105° |
| 2026-05-03 20:49 | 51.41949 | 12.21195 | 422 ft | 5 kts | 105° |
| 2026-05-03 20:49 | 51.41938 | 12.21262 | 424 ft | 7 kts | 105° |
| 2026-05-03 20:49 | 51.41923 | 12.21348 | 430 ft | 9 kts | 105° |
| 2026-05-03 20:50 | 51.41905 | 12.21453 | 429 ft | 11 kts | 105° |
| 2026-05-03 20:50 | 51.41883 | 12.21580 | 443 ft | 14 kts | 105° |
| 2026-05-03 20:50 | 51.41855 | 12.21748 | 434 ft | 18 kts | 105° |
| 2026-05-03 20:50 | 51.41818 | 12.21964 | 431 ft | 22 kts | 105° |
| 2026-05-03 20:51 | 51.41776 | 12.22212 | 433 ft | 24 kts | 105° |
| 2026-05-03 20:51 | 51.41730 | 12.22480 | 434 ft | 24 kts | 104° |
| 2026-05-03 20:51 | 51.41688 | 12.22728 | 455 ft | 22 kts | 104° |
| 2026-05-03 20:51 | 51.41649 | 12.22956 | 460 ft | 20 kts | 105° |
| 2026-05-03 20:52 | 51.41612 | 12.23167 | 470 ft | 19 kts | 105° |
| 2026-05-03 20:52 | 51.41604 | 12.23373 | 469 ft | 19 kts | 86° |
| 2026-05-03 20:52 | 51.41613 | 12.23596 | 471 ft | 20 kts | 85° |
| 2026-05-03 20:52 | 51.41625 | 12.23817 | 475 ft | 20 kts | 85° |
| 2026-05-03 20:53 | 51.41635 | 12.24047 | 481 ft | 21 kts | 85° |
| 2026-05-03 20:53 | 51.41645 | 12.24270 | 479 ft | 21 kts | 85° |
| 2026-05-03 20:53 | 51.41657 | 12.24512 | 482 ft | 23 kts | 86° |
| 2026-05-03 20:53 | 51.41633 | 12.24732 | 477 ft | 15 kts | 144° |
| 2026-05-03 20:54 | 51.41564 | 12.24736 | 480 ft | 9 kts | 192° |
| 2026-05-03 20:54 | 51.41394 | 12.24671 | 477 ft | 13 kts | 204° |
| 2026-05-03 20:54 | 51.41353 | 12.24569 | 477 ft | 10 kts | 260° |
| 2026-05-03 20:55 | 51.41351 | 12.24530 | 476 ft | 0 kts | 267° |
| 2026-05-03 20:55 | 51.41346 | 12.24389 | 477 ft | 38 kts | 266° |
| 2026-05-03 20:55 | 51.41302 | 12.23480 | 474 ft | 127 kts | 265° |
| 2026-05-03 20:56 | 51.41196 | 12.21728 | 832 ft | 164 kts | 259° |
| 2026-05-03 20:56 | 51.41018 | 12.19949 | 1684 ft | 175 kts | 264° |
| 2026-05-03 20:56 | 51.40992 | 12.17913 | 2313 ft | 202 kts | 270° |
| 2026-05-03 20:56 | 51.40942 | 12.15459 | 3137 ft | 236 kts | 266° |
| 2026-05-03 20:57 | 51.40814 | 12.12887 | 4434 ft | 244 kts | 264° |
| 2026-05-03 20:57 | 51.40669 | 12.10113 | 5773 ft | 254 kts | 263° |
| 2026-05-03 20:57 | 51.40530 | 12.07246 | 7095 ft | 262 kts | 263° |
| 2026-05-03 20:57 | 51.40390 | 12.04307 | 8420 ft | 268 kts | 261° |
| 2026-05-03 20:58 | 51.40245 | 12.01299 | 9733 ft | 274 kts | 260° |
| 2026-05-03 20:58 | 51.40089 | 11.98185 | 10686 ft | 292 kts | 260° |
| 2026-05-03 20:58 | 51.39923 | 11.94921 | 11250 ft | 319 kts | 261° |
| 2026-05-03 20:58 | 51.39740 | 11.91212 | 11796 ft | 347 kts | 261° |
| 2026-05-03 20:59 | 51.39557 | 11.87342 | 12973 ft | 350 kts | 261° |
| 2026-05-03 20:59 | 51.39366 | 11.83442 | 14197 ft | 354 kts | 261° |
| 2026-05-03 20:59 | 51.39162 | 11.79483 | 15225 ft | 359 kts | 262° |
| 2026-05-03 20:59 | 51.38956 | 11.75462 | 16255 ft | 365 kts | 263° |
| 2026-05-03 21:00 | 51.39054 | 11.71363 | 17201 ft | 375 kts | 276° |
| 2026-05-03 21:00 | 51.39424 | 11.68649 | 17881 ft | 378 kts | 280° |
| 2026-05-03 21:00 | 51.40265 | 11.63232 | 19501 ft | 372 kts | 281° |
| 2026-05-03 21:00 | 51.40902 | 11.59220 | 20576 ft | 371 kts | 281° |
| 2026-05-03 21:01 | 51.41513 | 11.55249 | 21564 ft | 372 kts | 281° |
| 2026-05-03 21:01 | 51.42140 | 11.51113 | 21946 ft | 384 kts | 281° |
| 2026-05-03 21:01 | 51.42770 | 11.47005 | 21939 ft | 380 kts | 281° |
| 2026-05-03 21:01 | 51.43401 | 11.42927 | 21932 ft | 376 kts | 281° |
| 2026-05-03 21:02 | 51.44022 | 11.38849 | 21938 ft | 377 kts | 281° |
| 2026-05-03 21:02 | 51.44640 | 11.34770 | 21934 ft | 376 kts | 281° |
| 2026-05-03 21:02 | 51.45214 | 11.30702 | 21934 ft | 373 kts | 274° |
| 2026-05-03 21:02 | 51.45106 | 11.26584 | 21974 ft | 370 kts | 255° |
| 2026-05-03 21:03 | 51.44353 | 11.22945 | 21960 ft | 370 kts | 244° |
| 2026-05-03 21:03 | 51.43052 | 11.19412 | 21965 ft | 369 kts | 232° |
| 2026-05-03 21:03 | 51.41338 | 11.16349 | 21952 ft | 369 kts | 226° |
| 2026-05-03 21:03 | 51.39549 | 11.13383 | 21967 ft | 369 kts | 227° |
| 2026-05-03 21:04 | 51.37811 | 11.10378 | 21965 ft | 369 kts | 228° |
| 2026-05-03 21:04 | 51.36083 | 11.07319 | 21966 ft | 369 kts | 228° |
| 2026-05-03 21:04 | 51.34346 | 11.04294 | 21964 ft | 369 kts | 227° |
| 2026-05-03 21:04 | 51.32598 | 11.01290 | 21962 ft | 369 kts | 227° |
| 2026-05-03 21:05 | 51.30853 | 10.98282 | 21966 ft | 369 kts | 227° |
| 2026-05-03 21:05 | 51.29112 | 10.95266 | 21967 ft | 369 kts | 227° |
| 2026-05-03 21:05 | 51.27374 | 10.92261 | 21968 ft | 369 kts | 227° |
| 2026-05-03 21:05 | 51.25630 | 10.89259 | 21971 ft | 369 kts | 227° |
| 2026-05-03 21:06 | 51.23882 | 10.86253 | 21968 ft | 369 kts | 227° |
| 2026-05-03 21:06 | 51.22136 | 10.83251 | 21972 ft | 369 kts | 227° |
| 2026-05-03 21:06 | 51.20394 | 10.80258 | 21973 ft | 369 kts | 227° |
| 2026-05-03 21:06 | 51.18646 | 10.77262 | 21973 ft | 369 kts | 227° |
| 2026-05-03 21:07 | 51.16895 | 10.74263 | 21975 ft | 369 kts | 227° |
| 2026-05-03 21:07 | 51.15143 | 10.71264 | 21972 ft | 369 kts | 227° |
| 2026-05-03 21:07 | 51.13395 | 10.68277 | 21973 ft | 370 kts | 227° |
| 2026-05-03 21:07 | 51.11640 | 10.65282 | 21975 ft | 369 kts | 227° |
| 2026-05-03 21:08 | 51.09892 | 10.62303 | 21974 ft | 369 kts | 227° |
| 2026-05-03 21:08 | 51.08139 | 10.59318 | 21975 ft | 369 kts | 227° |
| 2026-05-03 21:08 | 51.06390 | 10.56343 | 21975 ft | 369 kts | 227° |
| 2026-05-03 21:08 | 51.04631 | 10.53356 | 21974 ft | 369 kts | 227° |
| 2026-05-03 21:09 | 51.02879 | 10.50383 | 21977 ft | 369 kts | 227° |
| 2026-05-03 21:09 | 51.01122 | 10.47406 | 21976 ft | 369 kts | 227° |
| 2026-05-03 21:09 | 50.99361 | 10.44424 | 21980 ft | 369 kts | 227° |
| 2026-05-03 21:09 | 50.97605 | 10.41456 | 21977 ft | 369 kts | 227° |
| 2026-05-03 21:10 | 50.95848 | 10.38489 | 21982 ft | 369 kts | 227° |
| 2026-05-03 21:10 | 50.94087 | 10.35519 | 21981 ft | 369 kts | 227° |
| 2026-05-03 21:10 | 50.92329 | 10.32557 | 21978 ft | 370 kts | 227° |
| 2026-05-03 21:10 | 50.90566 | 10.29591 | 21979 ft | 369 kts | 226° |
| 2026-05-03 21:11 | 50.88804 | 10.26629 | 21980 ft | 369 kts | 226° |
| 2026-05-03 21:11 | 50.87039 | 10.23667 | 21981 ft | 370 kts | 226° |
| 2026-05-03 21:11 | 50.85277 | 10.20712 | 21980 ft | 370 kts | 226° |
| 2026-05-03 21:11 | 50.83511 | 10.17755 | 21985 ft | 370 kts | 226° |
| 2026-05-03 21:12 | 50.81745 | 10.14801 | 21981 ft | 369 kts | 226° |
| 2026-05-03 21:12 | 50.79975 | 10.11844 | 21982 ft | 370 kts | 226° |
| 2026-05-03 21:12 | 50.78208 | 10.08894 | 21982 ft | 369 kts | 226° |
| 2026-05-03 21:12 | 50.76445 | 10.05956 | 21983 ft | 370 kts | 226° |
| 2026-05-03 21:13 | 50.74676 | 10.03012 | 21976 ft | 370 kts | 226° |
| 2026-05-03 21:13 | 50.72910 | 10.00075 | 21979 ft | 364 kts | 226° |
| 2026-05-03 21:13 | 50.71191 | 9.97218 | 21851 ft | 357 kts | 226° |
| 2026-05-03 21:13 | 50.69476 | 9.94375 | 21419 ft | 359 kts | 226° |
| 2026-05-03 21:14 | 50.67749 | 9.91512 | 21049 ft | 360 kts | 226° |
| 2026-05-03 21:14 | 50.66040 | 9.88684 | 20637 ft | 361 kts | 226° |
| 2026-05-03 21:14 | 50.64292 | 9.85846 | 20252 ft | 362 kts | 224° |
| 2026-05-03 21:14 | 50.62500 | 9.83328 | 19851 ft | 363 kts | 220° |
| 2026-05-03 21:15 | 50.60520 | 9.80679 | 19418 ft | 364 kts | 221° |
| 2026-05-03 21:15 | 50.58638 | 9.78011 | 19040 ft | 365 kts | 223° |
| 2026-05-03 21:15 | 50.56776 | 9.75297 | 18614 ft | 366 kts | 223° |
| 2026-05-03 21:15 | 50.54888 | 9.72604 | 18206 ft | 367 kts | 223° |
| 2026-05-03 21:16 | 50.52981 | 9.69926 | 17732 ft | 368 kts | 222° |
| 2026-05-03 21:16 | 50.51075 | 9.67237 | 17238 ft | 368 kts | 223° |
| 2026-05-03 21:16 | 50.49148 | 9.64503 | 16735 ft | 370 kts | 223° |
| 2026-05-03 21:16 | 50.47261 | 9.61832 | 16346 ft | 368 kts | 222° |
| 2026-05-03 21:17 | 50.45339 | 9.59124 | 16014 ft | 365 kts | 222° |
| 2026-05-03 21:17 | 50.44092 | 9.57368 | 15759 ft | 364 kts | 222° |
| 2026-05-03 21:17 | 50.41581 | 9.53830 | 15304 ft | 362 kts | 222° |
| 2026-05-03 21:17 | 50.39712 | 9.51201 | 14963 ft | 360 kts | 222° |
| 2026-05-03 21:18 | 50.37861 | 9.48602 | 14509 ft | 355 kts | 222° |
| 2026-05-03 21:18 | 50.36041 | 9.46049 | 13888 ft | 347 kts | 222° |
| 2026-05-03 21:18 | 50.34281 | 9.43581 | 13249 ft | 339 kts | 222° |
| 2026-05-03 21:18 | 50.32524 | 9.41120 | 12588 ft | 331 kts | 222° |
| 2026-05-03 21:19 | 50.30830 | 9.38750 | 11936 ft | 324 kts | 222° |
| 2026-05-03 21:19 | 50.29172 | 9.36433 | 11102 ft | 323 kts | 222° |
| 2026-05-03 21:19 | 50.27584 | 9.34216 | 10274 ft | 289 kts | 222° |
| 2026-05-03 21:19 | 50.26142 | 9.32207 | 9496 ft | 261 kts | 221° |
| 2026-05-03 21:20 | 50.25277 | 9.30999 | 9174 ft | 240 kts | 221° |
| 2026-05-03 21:20 | 50.24106 | 9.29369 | 8873 ft | 217 kts | 222° |
| 2026-05-03 21:20 | 50.22579 | 9.27242 | 8566 ft | 230 kts | 222° |
| 2026-05-03 21:20 | 50.21406 | 9.25611 | 8342 ft | 220 kts | 222° |
| 2026-05-03 21:21 | 50.20252 | 9.24007 | 8107 ft | 224 kts | 221° |
| 2026-05-03 21:21 | 50.19145 | 9.22305 | 7842 ft | 222 kts | 233° |
| 2026-05-03 21:21 | 50.18465 | 9.20157 | 7624 ft | 224 kts | 246° |
| 2026-05-03 21:21 | 50.18109 | 9.18630 | 7468 ft | 226 kts | 246° |
| 2026-05-03 21:22 | 50.17575 | 9.16304 | 7228 ft | 222 kts | 247° |
| 2026-05-03 21:22 | 50.17055 | 9.14054 | 6992 ft | 223 kts | 246° |
| 2026-05-03 21:22 | 50.16524 | 9.11773 | 6741 ft | 223 kts | 247° |
| 2026-05-03 21:22 | 50.16059 | 9.09496 | 6497 ft | 224 kts | 249° |
| 2026-05-03 21:23 | 50.15584 | 9.07303 | 6271 ft | 219 kts | 246° |
| 2026-05-03 21:23 | 50.15054 | 9.05051 | 6016 ft | 223 kts | 246° |
| 2026-05-03 21:23 | 50.14517 | 9.02794 | 5758 ft | 218 kts | 247° |
| 2026-05-03 21:23 | 50.14023 | 9.00725 | 5544 ft | 221 kts | 247° |
| 2026-05-03 21:24 | 50.13487 | 8.98478 | 5305 ft | 222 kts | 247° |
| 2026-05-03 21:24 | 50.12957 | 8.96250 | 5145 ft | 214 kts | 248° |
| 2026-05-03 21:24 | 50.12439 | 8.94077 | 5050 ft | 213 kts | 248° |
| 2026-05-03 21:24 | 50.11921 | 8.91904 | 4809 ft | 211 kts | 248° |
| 2026-05-03 21:25 | 50.11427 | 8.89826 | 4540 ft | 199 kts | 248° |
| 2026-05-03 21:25 | 50.10958 | 8.87856 | 4269 ft | 190 kts | 248° |
| 2026-05-03 21:25 | 50.10506 | 8.85961 | 4009 ft | 183 kts | 249° |
| 2026-05-03 21:25 | 50.10070 | 8.84132 | 3772 ft | 177 kts | 249° |
| 2026-05-03 21:26 | 50.09649 | 8.82365 | 3545 ft | 171 kts | 249° |
| 2026-05-03 21:26 | 50.09237 | 8.80642 | 3319 ft | 169 kts | 250° |
| 2026-05-03 21:26 | 50.08828 | 8.78926 | 3106 ft | 170 kts | 250° |
| 2026-05-03 21:26 | 50.08465 | 8.77393 | 2892 ft | 168 kts | 249° |
| 2026-05-03 21:27 | 50.08056 | 8.75680 | 2666 ft | 169 kts | 250° |
| 2026-05-03 21:27 | 50.07643 | 8.73946 | 2438 ft | 172 kts | 250° |
| 2026-05-03 21:27 | 50.07229 | 8.72207 | 2208 ft | 168 kts | 249° |
| 2026-05-03 21:27 | 50.06843 | 8.70581 | 1990 ft | 152 kts | 249° |
| 2026-05-03 21:28 | 50.06499 | 8.69135 | 1801 ft | 140 kts | 249° |
| 2026-05-03 21:28 | 50.06170 | 8.67748 | 1620 ft | 136 kts | 249° |
| 2026-05-03 21:28 | 50.05838 | 8.66362 | 1433 ft | 137 kts | 249° |
| 2026-05-03 21:28 | 50.05508 | 8.64972 | 1252 ft | 138 kts | 248° |
| 2026-05-03 21:29 | 50.05179 | 8.63564 | 1059 ft | 139 kts | 249° |
| 2026-05-03 21:29 | 50.04851 | 8.62192 | 883 ft | 141 kts | 249° |
| 2026-05-03 21:29 | 50.04512 | 8.60763 | 680 ft | 141 kts | 249° |
| 2026-05-03 21:29 | 50.04168 | 8.59341 | 512 ft | 140 kts | 249° |
| 2026-05-03 21:30 | 50.03887 | 8.58158 | 388 ft | 136 kts | 248° |
| 2026-05-03 21:30 | 50.03654 | 8.57192 | 363 ft | 101 kts | 250° |
| 2026-05-03 21:30 | 50.03486 | 8.56484 | 359 ft | 51 kts | 250° |
| 2026-05-03 21:30 | 50.03393 | 8.56092 | 362 ft | 36 kts | 250° |
| 2026-05-03 21:31 | 50.03316 | 8.55719 | 357 ft | 36 kts | 261° |
| 2026-05-03 21:31 | 50.03331 | 8.55343 | 355 ft | 34 kts | 279° |
| 2026-05-03 21:31 | 50.03345 | 8.55210 | 352 ft | 0 kts | 279° |
| 2026-05-03 21:32 | 50.03345 | 8.55206 | 352 ft | 2 kts | 279° |
| 2026-05-03 21:32 | 50.03349 | 8.55174 | 354 ft | 5 kts | 279° |
| 2026-05-03 21:32 | 50.03360 | 8.55101 | 355 ft | 9 kts | 288° |
| 2026-05-03 21:32 | 50.03386 | 8.55004 | 353 ft | 12 kts | 294° |
| 2026-05-03 21:33 | 50.03430 | 8.54877 | 357 ft | 14 kts | 313° |
| 2026-05-03 21:33 | 50.03514 | 8.54811 | 355 ft | 14 kts | 339° |
| 2026-05-03 21:33 | 50.03616 | 8.54752 | 357 ft | 17 kts | 341° |
| 2026-05-03 21:33 | 50.03732 | 8.54726 | 351 ft | 16 kts | 20° |
| 2026-05-03 21:34 | 50.03770 | 8.54784 | 359 ft | 11 kts | 60° |
| 2026-05-03 21:34 | 50.03795 | 8.54886 | 361 ft | 11 kts | 70° |
| 2026-05-03 21:34 | 50.03824 | 8.55010 | 363 ft | 14 kts | 68° |
| 2026-05-03 21:34 | 50.03862 | 8.55163 | 359 ft | 16 kts | 71° |
| 2026-05-03 21:35 | 50.03904 | 8.55343 | 361 ft | 19 kts | 70° |
| 2026-05-03 21:35 | 50.03953 | 8.55548 | 363 ft | 22 kts | 69° |
| 2026-05-03 21:35 | 50.04009 | 8.55786 | 360 ft | 24 kts | 70° |
| 2026-05-03 21:35 | 50.04074 | 8.55951 | 362 ft | 5 kts | 18° |
| 2026-05-03 21:36 | 50.04111 | 8.55951 | 362 ft | 6 kts | 352° |
| 2026-05-03 21:36 | 50.04160 | 8.55931 | 362 ft | 9 kts | 343° |
| 2026-05-03 21:36 | 50.04225 | 8.55933 | 359 ft | 10 kts | 22° |
| 2026-05-03 21:36 | 50.04285 | 8.55950 | 366 ft | 8 kts | 353° |
| 2026-05-03 21:37 | 50.04341 | 8.55927 | 365 ft | 9 kts | 343° |
| 2026-05-03 21:37 | 50.04407 | 8.55909 | 366 ft | 10 kts | 5° |
| 2026-05-03 21:37 | 50.04481 | 8.55933 | 367 ft | 12 kts | 15° |
| 2026-05-03 21:37 | 50.04557 | 8.55992 | 369 ft | 12 kts | 48° |
| 2026-05-03 21:38 | 50.04586 | 8.56093 | 368 ft | 7 kts | 69° |
| 2026-05-03 21:38 | 50.04598 | 8.56146 | 364 ft | 2 kts | 70° |
| 2026-05-03 21:38 | 50.04606 | 8.56167 | 369 ft | 2 kts | 53° |
| 2026-05-03 21:38 | 50.04615 | 8.56177 | 369 ft | 2 kts | 31° |
| 2026-05-03 21:39 | 50.04632 | 8.56183 | 368 ft | 4 kts | 7° |
| 2026-05-03 21:39 | 50.04663 | 8.56174 | 368 ft | 6 kts | 347° |
| 2026-05-03 21:39 | 50.04685 | 8.56166 | 367 ft | 1 kts | 344° |
| 2026-05-03 21:39 | 50.04694 | 8.56162 | 366 ft | 1 kts | 343° |
| 2026-05-03 21:40 | 50.04696 | 8.56160 | 366 ft | 0 kts | 342° |